Abington, Massachusetts
Current Conditions -  °F | °C
As of 3:42 AM on Friday 24 Oct 2014 (Local Time) from KOWD Reporting Station
Haze Haze  
Wind Chill: 50°   Ceiling: 1500
Heat Index: 50°   Visibility: 6mi
Dew Point: 48°   Wind: 7mph
Humidity: 93%   Direction: NA
Pressure: 29.65"   Gusts: NA
Location:  42.12°N, 70.96°W
Report Text: KOWD 240742Z AUTO VRB06KT 6SM BR SCT009 OVC015 10/09 A2965 RMK AO2 RAE30 P0003 T01000089
Loading
Personal Weather Stations






























Interactive Weather Map
Tropical Storm Tracking
New forecast layout! Learn more

10-Day Weather Forecast

Advertisements
Track Severe Weather on mobile